createdAt,value
2022-12-25T00:01:12.346Z,5.17
2022-12-25T00:03:39.681Z,5.10
2022-12-25T00:06:07.208Z,5.30
2022-12-25T00:08:35.013Z,6.50
2022-12-25T00:11:13.401Z,5.80
2022-12-25T00:13:40.769Z,7.07
2022-12-25T00:16:10.112Z,5.90
2022-12-25T00:18:36.995Z,6.07
2022-12-25T00:21:06.498Z,6.27
2022-12-25T00:23:34.678Z,6.90
2022-12-25T00:26:08.230Z,6.60
2022-12-25T00:28:36.196Z,7.50
2022-12-25T00:31:15.589Z,7.67
2022-12-25T00:33:44.671Z,5.57
2022-12-25T00:36:13.345Z,5.80
2022-12-25T00:38:41.356Z,5.17
2022-12-25T00:41:53.002Z,4.60
2022-12-25T00:44:19.922Z,4.73
2022-12-25T00:46:46.792Z,5.23
2022-12-25T00:49:13.739Z,5.27
2022-12-25T00:51:40.704Z,5.07
2022-12-25T00:54:08.263Z,4.97
2022-12-25T00:56:35.683Z,4.80
2022-12-25T00:59:02.851Z,4.83
2022-12-25T01:01:29.839Z,5.10
2022-12-25T01:03:56.852Z,4.97
2022-12-25T01:06:23.808Z,4.83
2022-12-25T01:09:09.185Z,4.80
2022-12-25T01:11:36.401Z,6.40
2022-12-25T01:14:03.702Z,5.33
2022-12-25T01:16:30.755Z,5.30
2022-12-25T01:18:57.647Z,4.30
2022-12-25T01:21:24.613Z,5.23
2022-12-25T01:23:52.901Z,4.87
2022-12-25T01:26:22.510Z,4.73
2022-12-25T01:28:50.397Z,4.83
2022-12-25T01:31:19.921Z,4.80
2022-12-25T01:33:47.542Z,5.00
2022-12-25T01:36:23.007Z,4.63
2022-12-25T01:38:51.087Z,3.90
2022-12-25T01:41:20.959Z,5.07
2022-12-25T01:44:02.586Z,4.67
2022-12-25T01:46:30.271Z,5.20
2022-12-25T01:49:01.304Z,4.80
2022-12-25T01:51:37.565Z,4.70
2022-12-25T01:54:08.245Z,4.87
2022-12-25T01:56:37.773Z,5.13
2022-12-25T01:59:06.859Z,4.93
2022-12-25T02:01:34.001Z,5.13
2022-12-25T02:04:19.645Z,4.63
2022-12-25T02:06:48.176Z,5.30
2022-12-25T02:09:15.815Z,4.73
2022-12-25T02:11:57.786Z,5.03
2022-12-25T02:14:27.338Z,5.10
2022-12-25T02:17:20.510Z,5.50
2022-12-25T02:20:14.014Z,4.40
2022-12-25T02:22:56.102Z,5.23
2022-12-25T02:25:35.203Z,5.03
2022-12-25T02:28:17.237Z,4.90
2022-12-25T02:30:55.485Z,6.10
2022-12-25T02:34:12.388Z,5.07
2022-12-25T02:36:58.355Z,5.07
2022-12-25T02:39:58.435Z,4.50
2022-12-25T02:43:06.883Z,5.60
2022-12-25T02:45:55.129Z,5.00
2022-12-25T02:48:44.392Z,5.60
2022-12-25T02:51:34.627Z,5.57
2022-12-25T02:54:26.179Z,5.10
2022-12-25T02:57:14.040Z,5.80
2022-12-25T03:00:02.592Z,5.77
2022-12-25T03:02:51.640Z,6.33
2022-12-25T03:05:42.548Z,5.47
2022-12-25T03:08:17.954Z,5.40
2022-12-25T03:11:08.095Z,5.67
2022-12-25T03:13:39.729Z,5.43
2022-12-25T03:16:25.942Z,4.83
2022-12-25T03:18:55.891Z,5.53
2022-12-25T03:21:41.417Z,5.40
2022-12-25T03:24:26.610Z,4.90
2022-12-25T03:26:56.487Z,6.00
2022-12-25T03:29:50.139Z,5.80
2022-12-25T03:32:47.011Z,5.37
2022-12-25T03:35:44.735Z,6.10
2022-12-25T03:38:46.596Z,6.47
2022-12-25T03:41:52.512Z,6.03
2022-12-25T03:44:51.973Z,5.73
2022-12-25T03:48:05.897Z,5.90
2022-12-25T03:51:10.718Z,6.57
2022-12-25T03:54:00.907Z,6.23
2022-12-25T03:56:48.272Z,6.13
2022-12-25T03:59:38.927Z,6.00
2022-12-25T04:02:24.547Z,5.60
2022-12-25T04:05:10.077Z,5.77
2022-12-25T04:07:55.588Z,5.87
2022-12-25T04:10:41.149Z,5.73
2022-12-25T04:13:26.332Z,5.80
2022-12-25T04:16:12.937Z,5.60
2022-12-25T04:18:58.812Z,5.57
2022-12-25T04:21:44.304Z,5.50
2022-12-25T04:24:30.278Z,5.30
2022-12-25T04:27:15.758Z,5.20
2022-12-25T04:30:01.127Z,5.30
2022-12-25T04:32:46.334Z,5.60
2022-12-25T04:35:31.723Z,5.37
2022-12-25T04:37:58.657Z,5.10
2022-12-25T04:40:25.540Z,5.90
2022-12-25T04:42:52.975Z,5.03
2022-12-25T04:45:19.827Z,5.33
2022-12-25T04:47:46.814Z,5.53
2022-12-25T04:50:13.665Z,4.93
2022-12-25T04:52:42.046Z,5.40
2022-12-25T04:55:10.358Z,4.43
2022-12-25T04:57:37.552Z,5.27
2022-12-25T05:00:06.226Z,5.43
2022-12-25T05:02:33.241Z,5.30
2022-12-25T05:05:00.381Z,5.20
2022-12-25T05:07:27.332Z,5.77
2022-12-25T05:09:54.180Z,5.67
2022-12-25T05:12:21.164Z,5.63
2022-12-25T05:14:48.049Z,5.30
2022-12-25T05:17:14.872Z,5.00
2022-12-25T05:19:42.472Z,5.67
2022-12-25T05:22:09.892Z,5.00
2022-12-25T05:24:36.811Z,5.00
2022-12-25T05:27:03.738Z,5.60
2022-12-25T05:29:30.610Z,5.57
2022-12-25T05:31:57.480Z,5.67
2022-12-25T05:34:24.414Z,5.50
2022-12-25T05:36:51.252Z,5.60
2022-12-25T05:39:18.265Z,5.93
2022-12-25T05:41:45.158Z,5.10
2022-12-25T05:44:11.999Z,6.77
2022-12-25T05:46:38.967Z,5.73
2022-12-25T05:49:06.028Z,6.10
2022-12-25T05:51:33.258Z,6.17
2022-12-25T05:54:00.492Z,5.77
2022-12-25T05:56:27.706Z,5.73
2022-12-25T05:58:54.692Z,6.27
2022-12-25T06:01:25.267Z,5.57
2022-12-25T06:03:52.223Z,6.17
2022-12-25T06:06:19.403Z,5.47
2022-12-25T06:08:46.515Z,5.83
2022-12-25T06:11:14.674Z,7.40
2022-12-25T06:13:41.964Z,5.97
2022-12-25T06:16:10.762Z,6.37
2022-12-25T06:18:39.763Z,6.07
2022-12-25T06:21:08.422Z,6.07
2022-12-25T06:23:36.422Z,6.23
2022-12-25T06:26:08.799Z,6.77
2022-12-25T06:28:36.113Z,6.67
2022-12-25T06:31:11.529Z,6.20
2022-12-25T06:33:39.157Z,5.90
2022-12-25T06:36:11.126Z,6.50
2022-12-25T06:38:38.011Z,6.07
2022-12-25T06:41:08.246Z,6.90
2022-12-25T06:43:35.120Z,6.97
2022-12-25T06:46:11.829Z,7.00
2022-12-25T06:48:40.921Z,7.10
2022-12-25T06:51:07.890Z,6.90
2022-12-25T06:53:39.703Z,6.43
2022-12-25T06:56:09.374Z,6.40
2022-12-25T06:58:36.278Z,7.20
2022-12-25T07:01:15.507Z,6.67
2022-12-25T07:03:44.242Z,6.53
2022-12-25T07:06:11.443Z,7.17
2022-12-25T07:08:38.295Z,7.63
2022-12-25T07:11:06.621Z,6.77
2022-12-25T07:13:33.474Z,6.67
2022-12-25T07:16:02.377Z,6.30
2022-12-25T07:18:30.076Z,6.23
2022-12-25T07:20:59.444Z,5.97
2022-12-25T07:23:27.027Z,6.93
2022-12-25T07:25:59.692Z,6.40
2022-12-25T07:28:27.369Z,6.43
2022-12-25T07:30:54.215Z,6.77
2022-12-25T07:33:21.379Z,6.60
2022-12-25T07:35:48.257Z,6.43
2022-12-25T07:38:15.092Z,5.90
2022-12-25T07:40:46.016Z,6.63
2022-12-25T07:43:13.467Z,5.93
2022-12-25T07:45:40.406Z,6.17
2022-12-25T07:48:11.922Z,7.63
2022-12-25T07:50:42.231Z,7.27
2022-12-25T07:53:09.065Z,7.93
2022-12-25T07:55:35.946Z,7.10
2022-12-25T07:58:02.807Z,7.67
2022-12-25T08:00:32.679Z,7.83
2022-12-25T08:03:00.210Z,7.00
2022-12-25T08:05:27.373Z,6.57
2022-12-25T08:07:57.805Z,6.63
2022-12-25T08:10:25.783Z,7.13
2022-12-25T08:12:56.360Z,7.03
2022-12-25T08:15:23.266Z,6.80
2022-12-25T08:17:50.126Z,6.93
2022-12-25T08:20:16.986Z,5.87
2022-12-25T08:22:43.861Z,6.43
2022-12-25T08:25:10.737Z,6.50
2022-12-25T08:27:37.625Z,5.73
2022-12-25T08:30:05.089Z,6.90
2022-12-25T08:32:35.482Z,6.00
2022-12-25T08:35:02.282Z,5.50
2022-12-25T08:37:32.320Z,5.90
2022-12-25T08:39:59.195Z,6.57
2022-12-25T08:42:26.053Z,5.90
2022-12-25T08:44:52.975Z,5.60
2022-12-25T08:47:19.847Z,6.50
2022-12-25T08:49:46.725Z,8.10
2022-12-25T08:52:13.817Z,7.50
2022-12-25T08:54:40.650Z,7.53
2022-12-25T08:57:07.490Z,8.10
2022-12-25T08:59:34.322Z,7.60
2022-12-25T09:02:01.334Z,6.67
2022-12-25T09:04:28.366Z,6.10
2022-12-25T09:06:55.291Z,5.80
2022-12-25T09:09:27.404Z,5.93
2022-12-25T09:11:54.389Z,6.40
2022-12-25T09:14:22.042Z,6.67
2022-12-25T09:16:51.365Z,6.60
2022-12-25T09:19:18.262Z,6.50
2022-12-25T09:21:45.197Z,6.43
2022-12-25T09:24:12.110Z,6.50
2022-12-25T09:26:39.041Z,6.90
2022-12-25T09:29:05.923Z,7.53
2022-12-25T09:31:32.842Z,6.63
2022-12-25T09:33:59.755Z,6.60
2022-12-25T09:36:27.554Z,7.30
2022-12-25T09:38:54.412Z,7.30
2022-12-25T09:41:46.279Z,7.20
2022-12-25T09:44:27.059Z,7.03
2022-12-25T09:46:58.218Z,7.47
2022-12-25T09:49:42.175Z,8.17
2022-12-25T09:52:16.544Z,7.83
2022-12-25T09:55:20.715Z,8.03
2022-12-25T09:57:54.304Z,8.10
2022-12-25T10:00:27.636Z,8.50
2022-12-25T10:03:21.878Z,8.00
2022-12-25T10:06:16.490Z,7.40
2022-12-25T10:08:57.479Z,7.63
2022-12-25T10:11:35.853Z,9.43
2022-12-25T10:14:05.957Z,8.53
2022-12-25T10:16:54.172Z,8.40
2022-12-25T10:19:27.301Z,8.80
2022-12-25T10:22:01.117Z,9.17
2022-12-25T10:24:32.048Z,9.10
2022-12-25T10:27:04.229Z,9.30
2022-12-25T10:29:32.776Z,9.83
2022-12-25T10:31:59.800Z,10.00
2022-12-25T10:34:28.898Z,8.90
2022-12-25T10:36:55.891Z,8.37
2022-12-25T10:39:26.420Z,8.40
2022-12-25T10:42:14.461Z,8.50
2022-12-25T10:44:41.313Z,7.73
2022-12-25T10:47:08.337Z,7.60
2022-12-25T10:49:39.608Z,7.40
2022-12-25T10:52:24.796Z,7.70
2022-12-25T10:54:51.838Z,7.50
2022-12-25T10:57:22.177Z,7.10
2022-12-25T10:59:58.171Z,8.40
2022-12-25T11:02:31.049Z,7.30
2022-12-25T11:05:10.882Z,7.27
2022-12-25T11:07:54.828Z,6.70
2022-12-25T11:10:33.176Z,7.40
2022-12-25T11:13:01.203Z,8.30
2022-12-25T11:15:46.073Z,7.70
2022-12-25T11:18:22.087Z,7.83
2022-12-25T11:20:50.584Z,8.60
2022-12-25T11:23:23.057Z,7.97
2022-12-25T11:26:19.112Z,7.80
2022-12-25T11:28:48.954Z,9.00
2022-12-25T11:31:21.887Z,7.63
2022-12-25T11:34:03.518Z,12.30
2022-12-25T11:36:42.298Z,9.70
2022-12-25T11:39:21.399Z,8.93
2022-12-25T11:41:51.319Z,8.70
2022-12-25T11:44:28.427Z,9.20
2022-12-25T11:46:56.458Z,7.60
2022-12-25T11:49:24.382Z,8.77
2022-12-25T11:51:55.575Z,8.80
2022-12-25T11:54:45.985Z,8.40
2022-12-25T11:57:13.740Z,8.40
2022-12-25T11:59:54.056Z,8.10
2022-12-25T12:02:34.547Z,7.50
2022-12-25T12:05:26.519Z,7.47
2022-12-25T12:08:02.861Z,8.30
2022-12-25T12:10:46.262Z,7.07
2022-12-25T12:13:16.175Z,6.20
2022-12-25T12:15:46.158Z,7.10
2022-12-25T12:18:20.363Z,6.50
2022-12-25T12:21:08.547Z,6.57
2022-12-25T12:23:48.931Z,6.60
2022-12-25T12:26:43.548Z,6.83
2022-12-25T12:29:27.268Z,6.77
2022-12-25T12:31:59.766Z,6.43
2022-12-25T12:34:37.410Z,5.53
2022-12-25T12:37:07.605Z,6.63
2022-12-25T12:39:39.443Z,5.70
2022-12-25T12:42:23.253Z,5.60
2022-12-25T12:44:50.580Z,6.23
2022-12-25T12:47:41.743Z,5.97
2022-12-25T12:50:28.735Z,5.83
2022-12-25T12:52:56.345Z,5.50
2022-12-25T12:55:31.976Z,5.53
2022-12-25T12:58:01.300Z,5.60
2022-12-25T13:00:55.356Z,6.00
2022-12-25T13:03:43.549Z,6.43
2022-12-25T13:06:17.226Z,6.13
2022-12-25T13:09:05.437Z,6.00
2022-12-25T13:11:38.886Z,5.33
2022-12-25T13:14:06.260Z,5.23
2022-12-25T13:16:39.531Z,5.20
2022-12-25T13:19:11.510Z,5.50
2022-12-25T13:21:38.592Z,4.83
2022-12-25T13:24:18.231Z,5.10
2022-12-25T13:26:45.116Z,4.37
2022-12-25T13:29:36.070Z,4.27
2022-12-25T13:32:05.803Z,4.60
2022-12-25T13:34:41.657Z,4.80
2022-12-25T13:37:16.515Z,4.67
2022-12-25T13:39:56.327Z,4.90
2022-12-25T13:42:26.481Z,4.10
2022-12-25T13:44:53.386Z,4.20
2022-12-25T13:47:49.944Z,4.20
2022-12-25T13:50:34.025Z,4.90
2022-12-25T13:53:13.018Z,4.50
2022-12-25T13:55:41.804Z,4.13
2022-12-25T13:58:22.693Z,4.30
2022-12-25T14:00:53.052Z,4.50
2022-12-25T14:03:33.365Z,4.20
2022-12-25T14:06:03.351Z,5.57
2022-12-25T14:08:33.673Z,5.17
2022-12-25T14:11:07.823Z,4.93
2022-12-25T14:13:38.822Z,5.20
2022-12-25T14:16:06.884Z,4.83
2022-12-25T14:18:34.260Z,4.40
2022-12-25T14:21:09.693Z,4.47
2022-12-25T14:23:55.451Z,4.97
2022-12-25T14:26:26.177Z,4.63
2022-12-25T14:28:54.806Z,4.93
2022-12-25T14:31:23.584Z,5.20
2022-12-25T14:33:52.292Z,5.00
2022-12-25T14:36:19.382Z,5.47
2022-12-25T14:38:57.296Z,5.00
2022-12-25T14:41:37.841Z,4.70
2022-12-25T14:44:26.573Z,5.60
2022-12-25T14:47:05.060Z,5.13
2022-12-25T14:49:32.907Z,5.10
2022-12-25T14:51:59.850Z,5.00
2022-12-25T14:54:27.367Z,5.30
2022-12-25T14:56:56.304Z,5.43
2022-12-25T14:59:26.283Z,5.27
2022-12-25T15:01:59.384Z,6.00
2022-12-25T15:04:27.132Z,5.90
2022-12-25T15:06:59.439Z,4.90
2022-12-25T15:09:30.029Z,5.07
2022-12-25T15:11:57.293Z,5.80
2022-12-25T15:14:25.456Z,5.83
2022-12-25T15:16:58.085Z,5.50
2022-12-25T15:19:37.761Z,5.47
2022-12-25T15:22:06.196Z,6.00
2022-12-25T15:24:33.148Z,5.60
2022-12-25T15:27:00.814Z,7.40
2022-12-25T15:30:07.219Z,6.43
2022-12-25T15:32:21.055Z,6.00
2022-12-25T15:34:49.980Z,7.00
2022-12-25T15:37:18.350Z,7.00
2022-12-25T15:39:45.737Z,7.50
2022-12-25T15:42:15.141Z,7.43
2022-12-25T15:44:42.915Z,7.53
2022-12-25T15:47:11.665Z,7.40
2022-12-25T15:49:38.821Z,6.80
2022-12-25T15:52:07.537Z,6.00
2022-12-25T15:54:34.439Z,6.30
2022-12-25T15:57:03.819Z,6.20
2022-12-25T15:59:30.801Z,6.40
2022-12-25T16:02:00.407Z,6.07
2022-12-25T16:04:29.179Z,6.60
2022-12-25T16:06:56.484Z,6.60
2022-12-25T16:09:23.535Z,7.07
2022-12-25T16:11:50.506Z,6.70
2022-12-25T16:14:18.890Z,7.77
2022-12-25T16:16:45.832Z,6.73
2022-12-25T16:19:12.774Z,7.03
2022-12-25T16:21:45.702Z,6.97
2022-12-25T16:24:14.048Z,6.87
2022-12-25T16:26:41.090Z,7.17
2022-12-25T16:29:08.105Z,8.67
2022-12-25T16:31:36.189Z,11.60
2022-12-25T16:34:04.065Z,12.10
2022-12-25T16:36:31.029Z,9.87
2022-12-25T16:38:58.033Z,10.23
2022-12-25T16:41:24.889Z,11.10
2022-12-25T16:43:51.731Z,12.83
2022-12-25T16:46:21.143Z,11.90
2022-12-25T16:48:48.453Z,10.80
2022-12-25T16:51:20.590Z,11.10
2022-12-25T16:53:47.712Z,11.67
2022-12-25T16:56:17.852Z,11.30
2022-12-25T16:58:48.848Z,11.20
2022-12-25T17:01:17.893Z,11.90
2022-12-25T17:03:45.630Z,17.00
2022-12-25T17:06:15.331Z,14.50
2022-12-25T17:08:42.646Z,14.43
2022-12-25T17:11:10.063Z,14.53
2022-12-25T17:13:36.882Z,15.30
2022-12-25T17:16:22.946Z,15.20
2022-12-25T17:18:57.590Z,14.87
2022-12-25T17:21:25.061Z,16.17
2022-12-25T17:23:54.315Z,14.70
2022-12-25T17:26:25.009Z,14.33
2022-12-25T17:28:52.084Z,13.43
2022-12-25T17:31:19.106Z,11.07
2022-12-25T17:33:46.366Z,12.57
2022-12-25T17:36:16.038Z,13.10
2022-12-25T17:38:43.516Z,12.30
2022-12-25T17:41:12.517Z,12.43
2022-12-25T17:43:42.444Z,12.03
2022-12-25T17:46:16.922Z,12.37
2022-12-25T17:48:44.788Z,12.40
2022-12-25T17:51:14.359Z,11.83
2022-12-25T17:53:43.357Z,14.90
2022-12-25T17:56:11.520Z,14.13
2022-12-25T17:58:39.237Z,15.10
2022-12-25T18:01:15.326Z,15.60
2022-12-25T18:03:43.576Z,17.37
2022-12-25T18:06:13.756Z,21.00
2022-12-25T18:08:42.411Z,18.43
2022-12-25T18:11:15.256Z,18.40
2022-12-25T18:13:45.040Z,26.80
2022-12-25T18:16:12.995Z,33.90
2022-12-25T18:18:40.483Z,19.00
2022-12-25T18:21:08.479Z,15.13
2022-12-25T18:23:36.385Z,16.53
2022-12-25T18:26:09.018Z,17.10
2022-12-25T18:28:35.902Z,13.70
2022-12-25T18:31:06.765Z,13.20
2022-12-25T18:33:33.797Z,13.87
2022-12-25T18:36:01.551Z,14.93
2022-12-25T18:38:28.613Z,14.23
2022-12-25T18:40:56.142Z,14.43
2022-12-25T18:43:52.401Z,14.90
2022-12-25T18:46:10.175Z,17.60
2022-12-25T18:48:37.890Z,15.27
2022-12-25T18:51:08.153Z,15.27
2022-12-25T18:53:35.942Z,15.50
2022-12-25T18:56:09.667Z,15.77
2022-12-25T18:58:38.037Z,16.47
2022-12-25T19:01:12.098Z,15.50
2022-12-25T19:03:39.639Z,16.63
2022-12-25T19:06:07.022Z,15.93
2022-12-25T19:08:33.982Z,16.23
2022-12-25T19:11:00.920Z,17.20
2022-12-25T19:13:27.864Z,16.83
2022-12-25T19:15:58.706Z,16.60
2022-12-25T19:18:26.040Z,16.23
2022-12-25T19:20:52.902Z,28.00
2022-12-25T19:23:19.747Z,24.57
2022-12-25T19:25:46.655Z,26.80
2022-12-25T19:28:13.507Z,20.20
2022-12-25T19:30:40.330Z,23.33
2022-12-25T19:33:10.070Z,19.90
2022-12-25T19:35:41.632Z,23.60
2022-12-25T19:38:08.478Z,19.87
2022-12-25T19:41:00.278Z,17.73
2022-12-25T19:43:29.117Z,21.63
2022-12-25T19:45:56.238Z,21.80
2022-12-25T19:48:23.590Z,20.13
2022-12-25T19:50:50.752Z,19.60
2022-12-25T19:53:18.503Z,17.90
2022-12-25T19:55:45.607Z,18.80
2022-12-25T19:58:12.814Z,18.50
2022-12-25T20:00:40.504Z,18.03
2022-12-25T20:03:08.186Z,17.77
2022-12-25T20:05:35.232Z,18.67
2022-12-25T20:08:02.620Z,18.63
2022-12-25T20:10:29.458Z,20.40
2022-12-25T20:12:56.345Z,21.40
2022-12-25T20:15:23.146Z,17.70
2022-12-25T20:17:49.984Z,16.90
2022-12-25T20:20:16.963Z,16.77
2022-12-25T20:22:43.792Z,14.30
2022-12-25T20:25:11.467Z,13.93
2022-12-25T20:27:38.374Z,14.27
2022-12-25T20:30:06.075Z,13.30
2022-12-25T20:32:32.946Z,14.40
2022-12-25T20:34:59.796Z,15.60
2022-12-25T20:37:26.726Z,14.40
2022-12-25T20:39:53.528Z,12.77
2022-12-25T20:42:20.428Z,11.53
2022-12-25T20:44:47.354Z,9.43
2022-12-25T20:47:14.434Z,8.73
2022-12-25T20:49:41.381Z,8.60
2022-12-25T20:52:08.261Z,7.60
2022-12-25T20:54:35.131Z,8.23
2022-12-25T20:57:02.144Z,7.87
2022-12-25T20:59:35.210Z,7.90
2022-12-25T21:02:04.352Z,7.20
2022-12-25T21:04:31.361Z,7.80
2022-12-25T21:06:58.241Z,7.90
2022-12-25T21:09:25.115Z,7.37
2022-12-25T21:11:52.029Z,8.07
2022-12-25T21:14:18.969Z,8.30
2022-12-25T21:16:45.930Z,6.90
2022-12-25T21:19:12.790Z,6.90
2022-12-25T21:21:43.661Z,6.63
2022-12-25T21:24:11.083Z,6.13
2022-12-25T21:26:40.742Z,6.73
2022-12-25T21:29:10.109Z,6.30
2022-12-25T21:31:55.294Z,5.93
2022-12-25T21:34:22.655Z,5.70
2022-12-25T21:36:49.577Z,5.40
2022-12-25T21:39:16.623Z,6.00
2022-12-25T21:41:43.924Z,5.60
2022-12-25T21:44:10.998Z,5.93
2022-12-25T21:46:37.992Z,4.70
2022-12-25T21:49:05.051Z,4.87
2022-12-25T21:51:52.497Z,5.13
2022-12-25T21:54:21.565Z,5.10
2022-12-25T21:56:49.264Z,4.50
2022-12-25T21:59:18.829Z,4.67
2022-12-25T22:01:46.761Z,5.13
2022-12-25T22:04:15.457Z,4.57
2022-12-25T22:07:01.150Z,4.20
2022-12-25T22:09:28.194Z,4.07
2022-12-25T22:12:13.502Z,4.20
2022-12-25T22:14:57.020Z,4.53
2022-12-25T22:17:51.556Z,3.63
2022-12-25T22:20:19.943Z,3.90
2022-12-25T22:22:46.957Z,3.30
2022-12-25T22:25:14.564Z,3.27
2022-12-25T22:27:43.241Z,3.87
2022-12-25T22:30:16.599Z,4.17
2022-12-25T22:32:43.797Z,3.37
2022-12-25T22:35:12.349Z,3.57
2022-12-25T22:37:40.500Z,3.00
2022-12-25T22:40:08.260Z,3.37
2022-12-25T22:42:35.162Z,2.90
2022-12-25T22:45:02.487Z,3.20
2022-12-25T22:47:29.473Z,2.93
2022-12-25T22:49:56.444Z,2.97
2022-12-25T22:52:23.407Z,3.70
2022-12-25T22:54:50.238Z,3.00
2022-12-25T22:57:17.183Z,3.10
2022-12-25T22:59:44.313Z,3.20
2022-12-25T23:02:11.267Z,3.17
2022-12-25T23:04:38.184Z,3.47
2022-12-25T23:07:05.079Z,2.97
2022-12-25T23:09:31.968Z,2.90
2022-12-25T23:11:59.760Z,3.03
2022-12-25T23:14:39.358Z,3.17
2022-12-25T23:17:30.533Z,3.77
2022-12-25T23:20:17.131Z,3.20
2022-12-25T23:23:03.121Z,2.50
2022-12-25T23:25:49.066Z,2.90
2022-12-25T23:28:35.907Z,3.10
2022-12-25T23:31:02.814Z,2.63
2022-12-25T23:33:29.705Z,2.93
2022-12-25T23:35:56.591Z,3.00
2022-12-25T23:38:23.553Z,3.00
2022-12-25T23:40:50.401Z,3.10
2022-12-25T23:43:17.272Z,2.73
2022-12-25T23:45:44.255Z,3.00
2022-12-25T23:48:11.114Z,2.90
2022-12-25T23:50:37.965Z,3.50
2022-12-25T23:53:04.825Z,2.90
2022-12-25T23:55:32.916Z,3.10
2022-12-25T23:57:59.808Z,3.00
